sensor_id;sensor_type;location;lat;lon;timestamp;temperature;humidity
4209;DHT22;36320;48.860;2.380;2023-05-07T00:01:56;19.90;86.70
4209;DHT22;36320;48.860;2.380;2023-05-07T00:04:23;20.00;86.70
4209;DHT22;36320;48.860;2.380;2023-05-07T00:06:49;19.90;86.70
4209;DHT22;36320;48.860;2.380;2023-05-07T00:09:15;19.80;86.60
4209;DHT22;36320;48.860;2.380;2023-05-07T00:11:41;19.80;87.30
4209;DHT22;36320;48.860;2.380;2023-05-07T00:14:07;19.80;86.50
4209;DHT22;36320;48.860;2.380;2023-05-07T00:16:33;19.80;86.40
4209;DHT22;36320;48.860;2.380;2023-05-07T00:18:58;19.80;86.70
4209;DHT22;36320;48.860;2.380;2023-05-07T00:21:25;19.80;86.90
4209;DHT22;36320;48.860;2.380;2023-05-07T00:23:54;19.80;87.10
4209;DHT22;36320;48.860;2.380;2023-05-07T00:26:20;19.80;87.20
4209;DHT22;36320;48.860;2.380;2023-05-07T00:28:46;19.80;87.20
4209;DHT22;36320;48.860;2.380;2023-05-07T00:31:11;19.80;87.20
4209;DHT22;36320;48.860;2.380;2023-05-07T00:33:38;19.80;87.20
4209;DHT22;36320;48.860;2.380;2023-05-07T00:36:04;19.80;87.30
4209;DHT22;36320;48.860;2.380;2023-05-07T00:38:29;19.80;87.10
4209;DHT22;36320;48.860;2.380;2023-05-07T00:40:55;19.70;86.90
4209;DHT22;36320;48.860;2.380;2023-05-07T00:43:21;19.70;87.00
4209;DHT22;36320;48.860;2.380;2023-05-07T00:45:47;19.70;86.80
4209;DHT22;36320;48.860;2.380;2023-05-07T00:48:12;19.70;86.70
4209;DHT22;36320;48.860;2.380;2023-05-07T00:50:39;19.70;86.70
4209;DHT22;36320;48.860;2.380;2023-05-07T00:53:05;19.00;86.20
4209;DHT22;36320;48.860;2.380;2023-05-07T00:55:32;19.70;87.20
4209;DHT22;36320;48.860;2.380;2023-05-07T00:57:57;19.70;87.20
4209;DHT22;36320;48.860;2.380;2023-05-07T01:00:23;19.70;87.00
4209;DHT22;36320;48.860;2.380;2023-05-07T01:02:50;19.70;87.00
4209;DHT22;36320;48.860;2.380;2023-05-07T01:05:19;19.70;87.10
4209;DHT22;36320;48.860;2.380;2023-05-07T01:07:46;19.70;87.10
4209;DHT22;36320;48.860;2.380;2023-05-07T01:10:12;19.70;87.30
4209;DHT22;36320;48.860;2.380;2023-05-07T01:12:40;19.70;87.20
4209;DHT22;36320;48.860;2.380;2023-05-07T01:15:08;19.70;87.30
4209;DHT22;36320;48.860;2.380;2023-05-07T01:17:36;19.70;87.30
4209;DHT22;36320;48.860;2.380;2023-05-07T01:20:02;19.60;87.10
4209;DHT22;36320;48.860;2.380;2023-05-07T01:22:34;19.60;87.10
4209;DHT22;36320;48.860;2.380;2023-05-07T01:25:00;19.60;87.00
4209;DHT22;36320;48.860;2.380;2023-05-07T01:27:27;19.60;87.10
4209;DHT22;36320;48.860;2.380;2023-05-07T01:29:52;19.60;87.10
4209;DHT22;36320;48.860;2.380;2023-05-07T01:32:23;19.60;87.30
4209;DHT22;36320;48.860;2.380;2023-05-07T01:34:51;19.60;87.50
4209;DHT22;36320;48.860;2.380;2023-05-07T01:37:19;19.60;87.60
4209;DHT22;36320;48.860;2.380;2023-05-07T01:39:45;19.60;87.80
4209;DHT22;36320;48.860;2.380;2023-05-07T01:42:12;19.60;87.90
4209;DHT22;36320;48.860;2.380;2023-05-07T01:44:38;19.60;88.00
4209;DHT22;36320;48.860;2.380;2023-05-07T01:47:03;19.50;87.90
4209;DHT22;36320;48.860;2.380;2023-05-07T01:49:30;19.50;88.00
4209;DHT22;36320;48.860;2.380;2023-05-07T01:51:56;19.50;88.10
4209;DHT22;36320;48.860;2.380;2023-05-07T01:54:27;19.50;88.00
4209;DHT22;36320;48.860;2.380;2023-05-07T01:56:59;19.50;88.10
4209;DHT22;36320;48.860;2.380;2023-05-07T01:59:25;19.50;88.30
4209;DHT22;36320;48.860;2.380;2023-05-07T02:01:51;19.50;88.40
4209;DHT22;36320;48.860;2.380;2023-05-07T02:04:17;19.50;88.50
4209;DHT22;36320;48.860;2.380;2023-05-07T02:06:43;19.50;88.90
4209;DHT22;36320;48.860;2.380;2023-05-07T02:09:09;19.50;88.80
4209;DHT22;36320;48.860;2.380;2023-05-07T02:11:34;19.40;89.10
4209;DHT22;36320;48.860;2.380;2023-05-07T02:14:00;19.50;89.30
4209;DHT22;36320;48.860;2.380;2023-05-07T02:16:26;19.50;89.30
4209;DHT22;36320;48.860;2.380;2023-05-07T02:18:53;19.50;89.30
4209;DHT22;36320;48.860;2.380;2023-05-07T02:21:18;19.50;89.50
4209;DHT22;36320;48.860;2.380;2023-05-07T02:23:44;19.50;89.50
4209;DHT22;36320;48.860;2.380;2023-05-07T02:26:10;19.50;89.50
4209;DHT22;36320;48.860;2.380;2023-05-07T02:28:36;19.50;89.60
4209;DHT22;36320;48.860;2.380;2023-05-07T02:31:05;19.50;89.70
4209;DHT22;36320;48.860;2.380;2023-05-07T02:33:31;19.50;89.60
4209;DHT22;36320;48.860;2.380;2023-05-07T02:35:56;19.50;89.50
4209;DHT22;36320;48.860;2.380;2023-05-07T02:38:22;19.50;89.30
4209;DHT22;36320;48.860;2.380;2023-05-07T02:40:48;19.50;89.30
4209;DHT22;36320;48.860;2.380;2023-05-07T02:43:14;19.50;89.50
4209;DHT22;36320;48.860;2.380;2023-05-07T02:45:40;19.50;89.50
4209;DHT22;36320;48.860;2.380;2023-05-07T02:48:06;19.50;89.60
4209;DHT22;36320;48.860;2.380;2023-05-07T02:50:31;19.50;89.80
4209;DHT22;36320;48.860;2.380;2023-05-07T02:52:58;19.50;89.80
4209;DHT22;36320;48.860;2.380;2023-05-07T02:55:24;19.50;90.00
4209;DHT22;36320;48.860;2.380;2023-05-07T02:57:50;19.40;89.80
4209;DHT22;36320;48.860;2.380;2023-05-07T03:00:18;19.50;90.00
4209;DHT22;36320;48.860;2.380;2023-05-07T03:02:44;19.20;89.80
4209;DHT22;36320;48.860;2.380;2023-05-07T03:05:11;19.40;90.00
4209;DHT22;36320;48.860;2.380;2023-05-07T03:07:37;19.50;90.00
4209;DHT22;36320;48.860;2.380;2023-05-07T03:10:03;19.40;90.10
4209;DHT22;36320;48.860;2.380;2023-05-07T03:12:29;19.40;90.20
4209;DHT22;36320;48.860;2.380;2023-05-07T03:14:55;19.50;90.20
4209;DHT22;36320;48.860;2.380;2023-05-07T03:17:21;19.40;90.20
4209;DHT22;36320;48.860;2.380;2023-05-07T03:19:48;19.40;90.20
4209;DHT22;36320;48.860;2.380;2023-05-07T03:22:14;19.30;90.30
4209;DHT22;36320;48.860;2.380;2023-05-07T03:24:40;19.20;90.30
4209;DHT22;36320;48.860;2.380;2023-05-07T03:27:05;19.10;90.30
4209;DHT22;36320;48.860;2.380;2023-05-07T03:29:31;19.00;90.30
4209;DHT22;36320;48.860;2.380;2023-05-07T03:31:56;19.10;90.30
4209;DHT22;36320;48.860;2.380;2023-05-07T03:34:22;19.20;90.30
4209;DHT22;36320;48.860;2.380;2023-05-07T03:36:48;19.30;90.30
4209;DHT22;36320;48.860;2.380;2023-05-07T03:39:14;19.40;90.40
4209;DHT22;36320;48.860;2.380;2023-05-07T03:41:40;19.40;90.40
4209;DHT22;36320;48.860;2.380;2023-05-07T03:44:06;19.40;90.40
4209;DHT22;36320;48.860;2.380;2023-05-07T03:46:32;19.40;90.30
4209;DHT22;36320;48.860;2.380;2023-05-07T03:48:58;19.40;90.20
4209;DHT22;36320;48.860;2.380;2023-05-07T03:51:24;19.40;90.20
4209;DHT22;36320;48.860;2.380;2023-05-07T03:53:51;19.20;90.30
4209;DHT22;36320;48.860;2.380;2023-05-07T03:56:19;19.30;90.40
4209;DHT22;36320;48.860;2.380;2023-05-07T03:58:47;19.20;90.40
4209;DHT22;36320;48.860;2.380;2023-05-07T04:01:12;19.10;90.50
4209;DHT22;36320;48.860;2.380;2023-05-07T04:03:38;19.10;90.50
4209;DHT22;36320;48.860;2.380;2023-05-07T04:06:04;19.20;90.40
4209;DHT22;36320;48.860;2.380;2023-05-07T04:08:30;19.20;90.40
4209;DHT22;36320;48.860;2.380;2023-05-07T04:10:56;19.30;90.30
4209;DHT22;36320;48.860;2.380;2023-05-07T04:13:23;19.30;90.30
4209;DHT22;36320;48.860;2.380;2023-05-07T04:15:48;19.40;90.30
4209;DHT22;36320;48.860;2.380;2023-05-07T04:18:15;19.40;90.40
4209;DHT22;36320;48.860;2.380;2023-05-07T04:20:41;19.50;90.50
4209;DHT22;36320;48.860;2.380;2023-05-07T04:23:07;19.40;90.50
4209;DHT22;36320;48.860;2.380;2023-05-07T04:25:32;19.40;90.60
4209;DHT22;36320;48.860;2.380;2023-05-07T04:27:58;19.40;90.60
4209;DHT22;36320;48.860;2.380;2023-05-07T04:30:24;19.40;90.60
4209;DHT22;36320;48.860;2.380;2023-05-07T04:32:50;19.40;90.60
4209;DHT22;36320;48.860;2.380;2023-05-07T04:35:16;19.20;90.60
4209;DHT22;36320;48.860;2.380;2023-05-07T04:37:44;19.30;90.80
4209;DHT22;36320;48.860;2.380;2023-05-07T04:40:10;19.20;90.70
4209;DHT22;36320;48.860;2.380;2023-05-07T04:42:35;19.20;90.70
4209;DHT22;36320;48.860;2.380;2023-05-07T04:45:03;19.00;90.80
4209;DHT22;36320;48.860;2.380;2023-05-07T04:47:30;19.10;90.80
4209;DHT22;36320;48.860;2.380;2023-05-07T04:49:57;19.10;90.70
4209;DHT22;36320;48.860;2.380;2023-05-07T04:52:22;19.00;90.60
4209;DHT22;36320;48.860;2.380;2023-05-07T04:54:48;19.00;90.60
4209;DHT22;36320;48.860;2.380;2023-05-07T04:57:14;18.90;90.60
4209;DHT22;36320;48.860;2.380;2023-05-07T04:59:39;18.90;90.50
4209;DHT22;36320;48.860;2.380;2023-05-07T05:02:05;18.90;90.60
4209;DHT22;36320;48.860;2.380;2023-05-07T05:04:31;18.90;90.50
4209;DHT22;36320;48.860;2.380;2023-05-07T05:06:56;18.90;90.50
4209;DHT22;36320;48.860;2.380;2023-05-07T05:09:22;18.90;90.60
4209;DHT22;36320;48.860;2.380;2023-05-07T05:11:48;19.00;90.50
4209;DHT22;36320;48.860;2.380;2023-05-07T05:14:13;19.10;90.40
4209;DHT22;36320;48.860;2.380;2023-05-07T05:16:39;19.10;90.50
4209;DHT22;36320;48.860;2.380;2023-05-07T05:19:05;19.20;90.60
4209;DHT22;36320;48.860;2.380;2023-05-07T05:21:31;19.10;90.70
4209;DHT22;36320;48.860;2.380;2023-05-07T05:23:58;19.20;90.70
4209;DHT22;36320;48.860;2.380;2023-05-07T05:26:24;19.20;90.60
4209;DHT22;36320;48.860;2.380;2023-05-07T05:28:52;19.20;90.70
4209;DHT22;36320;48.860;2.380;2023-05-07T05:31:18;19.10;90.70
4209;DHT22;36320;48.860;2.380;2023-05-07T05:33:43;19.10;90.60
4209;DHT22;36320;48.860;2.380;2023-05-07T05:36:10;19.20;90.50
4209;DHT22;36320;48.860;2.380;2023-05-07T05:38:37;19.20;90.40
4209;DHT22;36320;48.860;2.380;2023-05-07T05:41:02;19.20;90.70
4209;DHT22;36320;48.860;2.380;2023-05-07T05:43:28;19.20;90.30
4209;DHT22;36320;48.860;2.380;2023-05-07T05:45:55;19.10;90.30
4209;DHT22;36320;48.860;2.380;2023-05-07T05:48:21;19.00;90.40
4209;DHT22;36320;48.860;2.380;2023-05-07T05:50:47;19.10;90.30
4209;DHT22;36320;48.860;2.380;2023-05-07T05:53:12;19.10;90.30
4209;DHT22;36320;48.860;2.380;2023-05-07T05:55:38;19.10;90.30
4209;DHT22;36320;48.860;2.380;2023-05-07T05:58:04;19.00;90.20
4209;DHT22;36320;48.860;2.380;2023-05-07T06:00:29;19.10;90.30
4209;DHT22;36320;48.860;2.380;2023-05-07T06:02:55;19.20;90.30
4209;DHT22;36320;48.860;2.380;2023-05-07T06:05:21;19.20;90.20
4209;DHT22;36320;48.860;2.380;2023-05-07T06:07:47;19.20;90.20
4209;DHT22;36320;48.860;2.380;2023-05-07T06:10:12;19.30;90.10
4209;DHT22;36320;48.860;2.380;2023-05-07T06:12:38;19.30;90.10
4209;DHT22;36320;48.860;2.380;2023-05-07T06:15:04;19.30;90.00
4209;DHT22;36320;48.860;2.380;2023-05-07T06:17:30;19.20;90.00
4209;DHT22;36320;48.860;2.380;2023-05-07T06:19:55;19.20;90.00
4209;DHT22;36320;48.860;2.380;2023-05-07T06:22:23;19.20;89.90
4209;DHT22;36320;48.860;2.380;2023-05-07T06:24:48;19.20;89.70
4209;DHT22;36320;48.860;2.380;2023-05-07T06:27:14;19.30;89.60
4209;DHT22;36320;48.860;2.380;2023-05-07T06:29:40;19.40;89.60
4209;DHT22;36320;48.860;2.380;2023-05-07T06:32:13;19.40;89.40
4209;DHT22;36320;48.860;2.380;2023-05-07T06:34:40;19.40;89.90
4209;DHT22;36320;48.860;2.380;2023-05-07T06:37:06;19.50;89.90
4209;DHT22;36320;48.860;2.380;2023-05-07T06:39:32;19.50;89.60
4209;DHT22;36320;48.860;2.380;2023-05-07T06:41:59;19.60;89.40
4209;DHT22;36320;48.860;2.380;2023-05-07T06:44:25;19.60;89.30
4209;DHT22;36320;48.860;2.380;2023-05-07T06:46:50;19.70;89.10
4209;DHT22;36320;48.860;2.380;2023-05-07T06:49:16;19.70;88.80
4209;DHT22;36320;48.860;2.380;2023-05-07T06:51:42;19.60;88.60
4209;DHT22;36320;48.860;2.380;2023-05-07T06:54:09;19.60;88.70
4209;DHT22;36320;48.860;2.380;2023-05-07T06:56:34;19.80;88.60
4209;DHT22;36320;48.860;2.380;2023-05-07T06:59:01;19.80;88.30
4209;DHT22;36320;48.860;2.380;2023-05-07T07:01:27;19.80;88.20
4209;DHT22;36320;48.860;2.380;2023-05-07T07:03:53;19.80;88.10
4209;DHT22;36320;48.860;2.380;2023-05-07T07:06:18;19.80;88.40
4209;DHT22;36320;48.860;2.380;2023-05-07T07:08:44;19.90;87.90
4209;DHT22;36320;48.860;2.380;2023-05-07T07:11:10;20.00;87.80
4209;DHT22;36320;48.860;2.380;2023-05-07T07:13:36;20.00;87.60
4209;DHT22;36320;48.860;2.380;2023-05-07T07:16:02;19.80;87.60
4209;DHT22;36320;48.860;2.380;2023-05-07T07:18:28;19.90;87.60
4209;DHT22;36320;48.860;2.380;2023-05-07T07:20:54;20.10;87.40
4209;DHT22;36320;48.860;2.380;2023-05-07T07:23:20;20.20;87.40
4209;DHT22;36320;48.860;2.380;2023-05-07T07:25:46;20.20;87.70
4209;DHT22;36320;48.860;2.380;2023-05-07T07:28:12;20.20;87.70
4209;DHT22;36320;48.860;2.380;2023-05-07T07:30:38;20.00;87.60
4209;DHT22;36320;48.860;2.380;2023-05-07T07:33:05;19.80;87.80
4209;DHT22;36320;48.860;2.380;2023-05-07T07:35:31;19.90;87.70
4209;DHT22;36320;48.860;2.380;2023-05-07T07:37:57;19.80;87.70
4209;DHT22;36320;48.860;2.380;2023-05-07T07:40:24;19.90;87.50
4209;DHT22;36320;48.860;2.380;2023-05-07T07:42:52;20.00;87.50
4209;DHT22;36320;48.860;2.380;2023-05-07T07:45:18;19.80;87.70
4209;DHT22;36320;48.860;2.380;2023-05-07T07:47:45;19.80;88.30
4209;DHT22;36320;48.860;2.380;2023-05-07T07:50:11;19.80;88.10
4209;DHT22;36320;48.860;2.380;2023-05-07T07:52:37;20.00;88.20
4209;DHT22;36320;48.860;2.380;2023-05-07T07:55:03;20.10;88.20
4209;DHT22;36320;48.860;2.380;2023-05-07T07:57:30;21.90;89.50
4209;DHT22;36320;48.860;2.380;2023-05-07T07:59:56;20.20;87.70
4209;DHT22;36320;48.860;2.380;2023-05-07T08:02:23;20.20;87.70
4209;DHT22;36320;48.860;2.380;2023-05-07T08:04:48;20.20;87.80
4209;DHT22;36320;48.860;2.380;2023-05-07T08:07:14;20.20;87.80
4209;DHT22;36320;48.860;2.380;2023-05-07T08:09:40;20.00;87.80
4209;DHT22;36320;48.860;2.380;2023-05-07T08:12:07;20.00;87.80
4209;DHT22;36320;48.860;2.380;2023-05-07T08:14:35;20.10;87.70
4209;DHT22;36320;48.860;2.380;2023-05-07T08:17:03;20.30;87.60
4209;DHT22;36320;48.860;2.380;2023-05-07T08:19:29;20.30;87.50
4209;DHT22;36320;48.860;2.380;2023-05-07T08:21:54;20.20;87.50
4209;DHT22;36320;48.860;2.380;2023-05-07T08:24:22;20.30;87.40
4209;DHT22;36320;48.860;2.380;2023-05-07T08:26:49;20.20;87.20
4209;DHT22;36320;48.860;2.380;2023-05-07T08:29:16;20.40;87.10
4209;DHT22;36320;48.860;2.380;2023-05-07T08:31:42;20.60;86.60
4209;DHT22;36320;48.860;2.380;2023-05-07T08:34:07;20.60;86.70
4209;DHT22;36320;48.860;2.380;2023-05-07T08:36:35;20.60;86.50
4209;DHT22;36320;48.860;2.380;2023-05-07T08:39:02;20.70;86.00
4209;DHT22;36320;48.860;2.380;2023-05-07T08:41:28;20.70;86.10
4209;DHT22;36320;48.860;2.380;2023-05-07T08:43:59;20.70;85.50
4209;DHT22;36320;48.860;2.380;2023-05-07T08:46:31;20.70;85.50
4209;DHT22;36320;48.860;2.380;2023-05-07T08:48:58;20.80;85.00
4209;DHT22;36320;48.860;2.380;2023-05-07T08:51:23;20.80;84.80
4209;DHT22;36320;48.860;2.380;2023-05-07T08:53:49;20.50;85.10
4209;DHT22;36320;48.860;2.380;2023-05-07T08:56:16;20.60;85.20
4209;DHT22;36320;48.860;2.380;2023-05-07T08:58:43;20.60;85.30
4209;DHT22;36320;48.860;2.380;2023-05-07T09:01:13;20.70;85.80
4209;DHT22;36320;48.860;2.380;2023-05-07T09:03:40;20.60;85.60
4209;DHT22;36320;48.860;2.380;2023-05-07T09:06:08;20.60;86.60
4209;DHT22;36320;48.860;2.380;2023-05-07T09:08:35;20.60;85.80
4209;DHT22;36320;48.860;2.380;2023-05-07T09:11:02;20.60;85.90
4209;DHT22;36320;48.860;2.380;2023-05-07T09:13:28;20.50;85.70
4209;DHT22;36320;48.860;2.380;2023-05-07T09:15:54;20.40;86.20
4209;DHT22;36320;48.860;2.380;2023-05-07T09:18:26;20.50;86.30
4209;DHT22;36320;48.860;2.380;2023-05-07T09:20:51;20.50;86.10
4209;DHT22;36320;48.860;2.380;2023-05-07T09:23:17;20.40;86.30
4209;DHT22;36320;48.860;2.380;2023-05-07T09:25:43;20.50;86.40
4209;DHT22;36320;48.860;2.380;2023-05-07T09:28:10;20.70;86.20
4209;DHT22;36320;48.860;2.380;2023-05-07T09:30:36;20.90;86.10
4209;DHT22;36320;48.860;2.380;2023-05-07T09:33:03;21.00;85.80
4209;DHT22;36320;48.860;2.380;2023-05-07T09:35:29;21.00;85.50
4209;DHT22;36320;48.860;2.380;2023-05-07T09:38:00;21.00;85.50
4209;DHT22;36320;48.860;2.380;2023-05-07T09:40:28;21.20;85.10
4209;DHT22;36320;48.860;2.380;2023-05-07T09:42:55;22.50;86.80
4209;DHT22;36320;48.860;2.380;2023-05-07T09:45:28;21.20;84.60
4209;DHT22;36320;48.860;2.380;2023-05-07T09:47:58;21.40;84.50
4209;DHT22;36320;48.860;2.380;2023-05-07T09:50:31;21.50;84.20
4209;DHT22;36320;48.860;2.380;2023-05-07T09:52:58;21.50;83.90
4209;DHT22;36320;48.860;2.380;2023-05-07T09:55:27;21.30;83.70
4209;DHT22;36320;48.860;2.380;2023-05-07T09:57:57;21.40;83.70
4209;DHT22;36320;48.860;2.380;2023-05-07T10:00:23;21.70;83.40
4209;DHT22;36320;48.860;2.380;2023-05-07T10:02:50;21.90;82.80
4209;DHT22;36320;48.860;2.380;2023-05-07T10:05:19;22.00;82.10
4209;DHT22;36320;48.860;2.380;2023-05-07T10:07:47;22.20;81.80
4209;DHT22;36320;48.860;2.380;2023-05-07T10:10:14;22.10;81.40
4209;DHT22;36320;48.860;2.380;2023-05-07T10:12:42;21.90;81.30
4209;DHT22;36320;48.860;2.380;2023-05-07T10:15:11;21.80;81.50
4209;DHT22;36320;48.860;2.380;2023-05-07T10:17:44;21.60;81.80
4209;DHT22;36320;48.860;2.380;2023-05-07T10:20:10;21.50;82.00
4209;DHT22;36320;48.860;2.380;2023-05-07T10:22:45;21.40;81.90
4209;DHT22;36320;48.860;2.380;2023-05-07T10:25:18;21.40;82.30
4209;DHT22;36320;48.860;2.380;2023-05-07T10:27:48;21.50;82.20
4209;DHT22;36320;48.860;2.380;2023-05-07T10:30:48;21.60;82.10
4209;DHT22;36320;48.860;2.380;2023-05-07T10:33:23;21.60;82.00
4209;DHT22;36320;48.860;2.380;2023-05-07T10:35:58;21.70;82.10
4209;DHT22;36320;48.860;2.380;2023-05-07T10:38:27;21.80;81.70
4209;DHT22;36320;48.860;2.380;2023-05-07T10:40:53;21.70;81.50
4209;DHT22;36320;48.860;2.380;2023-05-07T10:43:19;21.70;82.20
4209;DHT22;36320;48.860;2.380;2023-05-07T10:46:18;21.70;81.60
4209;DHT22;36320;48.860;2.380;2023-05-07T10:51:29;21.80;81.40
4209;DHT22;36320;48.860;2.380;2023-05-07T10:56:41;21.80;80.80
4209;DHT22;36320;48.860;2.380;2023-05-07T11:02:08;21.90;80.80
4209;DHT22;36320;48.860;2.380;2023-05-07T11:04:36;21.80;81.00
4209;DHT22;36320;48.860;2.380;2023-05-07T11:17:32;21.70;81.80
4209;DHT22;36320;48.860;2.380;2023-05-07T11:20:05;21.60;81.90
4209;DHT22;36320;48.860;2.380;2023-05-07T11:24:59;21.50;82.50
4209;DHT22;36320;48.860;2.380;2023-05-07T11:27:26;21.40;82.70
4209;DHT22;36320;48.860;2.380;2023-05-07T11:29:52;21.40;83.00
4209;DHT22;36320;48.860;2.380;2023-05-07T11:32:27;21.20;83.10
4209;DHT22;36320;48.860;2.380;2023-05-07T11:34:58;21.10;83.30
4209;DHT22;36320;48.860;2.380;2023-05-07T11:37:25;21.10;83.60
4209;DHT22;36320;48.860;2.380;2023-05-07T11:40:03;20.80;84.10
4209;DHT22;36320;48.860;2.380;2023-05-07T11:42:34;20.40;85.40
4209;DHT22;36320;48.860;2.380;2023-05-07T11:45:05;20.30;86.50
4209;DHT22;36320;48.860;2.380;2023-05-07T11:47:34;18.80;86.10
4209;DHT22;36320;48.860;2.380;2023-05-07T11:50:06;20.10;88.40
4209;DHT22;36320;48.860;2.380;2023-05-07T11:52:33;20.30;89.10
4209;DHT22;36320;48.860;2.380;2023-05-07T11:54:59;20.50;89.70
4209;DHT22;36320;48.860;2.380;2023-05-07T11:57:26;20.70;89.90
4209;DHT22;36320;48.860;2.380;2023-05-07T11:59:56;20.60;90.00
4209;DHT22;36320;48.860;2.380;2023-05-07T12:02:22;20.70;90.20
4209;DHT22;36320;48.860;2.380;2023-05-07T12:04:51;20.90;90.00
4209;DHT22;36320;48.860;2.380;2023-05-07T12:07:17;21.00;89.70
4209;DHT22;36320;48.860;2.380;2023-05-07T12:09:45;21.70;89.00
4209;DHT22;36320;48.860;2.380;2023-05-07T12:12:11;22.30;88.30
4209;DHT22;36320;48.860;2.380;2023-05-07T12:14:45;22.80;87.40
4209;DHT22;36320;48.860;2.380;2023-05-07T12:17:13;23.20;86.30
4209;DHT22;36320;48.860;2.380;2023-05-07T12:19:41;23.40;85.60
4209;DHT22;36320;48.860;2.380;2023-05-07T12:22:08;23.30;84.60
4209;DHT22;36320;48.860;2.380;2023-05-07T12:24:48;23.00;84.10
4209;DHT22;36320;48.860;2.380;2023-05-07T12:27:17;22.70;84.00
4209;DHT22;36320;48.860;2.380;2023-05-07T12:29:50;22.50;83.90
4209;DHT22;36320;48.860;2.380;2023-05-07T12:32:25;22.40;83.70
4209;DHT22;36320;48.860;2.380;2023-05-07T12:34:51;22.30;83.70
4209;DHT22;36320;48.860;2.380;2023-05-07T12:37:24;22.20;84.60
4209;DHT22;36320;48.860;2.380;2023-05-07T12:40:13;22.10;85.60
4209;DHT22;36320;48.860;2.380;2023-05-07T12:42:40;22.00;86.00
4209;DHT22;36320;48.860;2.380;2023-05-07T12:45:10;21.90;86.50
4209;DHT22;36320;48.860;2.380;2023-05-07T12:47:36;21.80;87.00
4209;DHT22;36320;48.860;2.380;2023-05-07T12:50:09;21.80;87.40
4209;DHT22;36320;48.860;2.380;2023-05-07T12:52:36;22.40;88.10
4209;DHT22;36320;48.860;2.380;2023-05-07T12:55:07;21.80;87.20
4209;DHT22;36320;48.860;2.380;2023-05-07T12:57:45;21.80;87.10
4209;DHT22;36320;48.860;2.380;2023-05-07T13:00:11;21.80;86.70
4209;DHT22;36320;48.860;2.380;2023-05-07T13:02:41;21.80;86.40
4209;DHT22;36320;48.860;2.380;2023-05-07T13:05:07;22.00;86.30
4209;DHT22;36320;48.860;2.380;2023-05-07T13:07:33;22.10;85.90
4209;DHT22;36320;48.860;2.380;2023-05-07T13:10:01;22.00;85.50
4209;DHT22;36320;48.860;2.380;2023-05-07T13:12:27;22.10;85.40
4209;DHT22;36320;48.860;2.380;2023-05-07T13:14:52;22.20;85.40
4209;DHT22;36320;48.860;2.380;2023-05-07T13:17:18;22.30;85.40
4209;DHT22;36320;48.860;2.380;2023-05-07T13:19:44;22.20;84.70
4209;DHT22;36320;48.860;2.380;2023-05-07T13:22:10;22.10;84.00
4209;DHT22;36320;48.860;2.380;2023-05-07T13:24:36;22.10;83.80
4209;DHT22;36320;48.860;2.380;2023-05-07T13:27:02;21.90;84.10
4209;DHT22;36320;48.860;2.380;2023-05-07T13:29:28;22.00;84.40
4209;DHT22;36320;48.860;2.380;2023-05-07T13:31:59;22.10;84.50
4209;DHT22;36320;48.860;2.380;2023-05-07T13:34:25;22.20;84.60
4209;DHT22;36320;48.860;2.380;2023-05-07T13:36:52;22.20;84.50
4209;DHT22;36320;48.860;2.380;2023-05-07T13:39:18;22.20;84.50
4209;DHT22;36320;48.860;2.380;2023-05-07T13:41:43;22.20;85.10
4209;DHT22;36320;48.860;2.380;2023-05-07T13:44:10;22.30;85.20
4209;DHT22;36320;48.860;2.380;2023-05-07T13:46:36;22.30;85.20
4209;DHT22;36320;48.860;2.380;2023-05-07T13:49:02;22.20;85.10
4209;DHT22;36320;48.860;2.380;2023-05-07T13:51:28;22.00;85.00
4209;DHT22;36320;48.860;2.380;2023-05-07T13:53:54;21.90;85.80
4209;DHT22;36320;48.860;2.380;2023-05-07T13:56:20;21.60;85.30
4209;DHT22;36320;48.860;2.380;2023-05-07T13:58:46;21.20;86.00
4209;DHT22;36320;48.860;2.380;2023-05-07T14:01:12;21.00;86.60
4209;DHT22;36320;48.860;2.380;2023-05-07T14:03:39;21.30;86.90
4209;DHT22;36320;48.860;2.380;2023-05-07T14:06:07;21.60;86.40
4209;DHT22;36320;48.860;2.380;2023-05-07T14:08:34;21.70;86.10
4209;DHT22;36320;48.860;2.380;2023-05-07T14:11:00;21.70;85.70
4209;DHT22;36320;48.860;2.380;2023-05-07T14:13:26;21.70;85.60
4209;DHT22;36320;48.860;2.380;2023-05-07T14:15:53;21.80;85.60
4209;DHT22;36320;48.860;2.380;2023-05-07T14:18:19;21.80;85.60
4209;DHT22;36320;48.860;2.380;2023-05-07T14:20:45;21.90;85.70
4209;DHT22;36320;48.860;2.380;2023-05-07T14:23:12;21.70;85.30
4209;DHT22;36320;48.860;2.380;2023-05-07T14:25:38;21.40;85.30
4209;DHT22;36320;48.860;2.380;2023-05-07T14:28:04;21.50;85.40
4209;DHT22;36320;48.860;2.380;2023-05-07T14:30:30;21.70;85.20
4209;DHT22;36320;48.860;2.380;2023-05-07T14:32:57;21.90;85.00
4209;DHT22;36320;48.860;2.380;2023-05-07T14:35:24;22.00;84.70
4209;DHT22;36320;48.860;2.380;2023-05-07T14:37:51;22.60;84.60
4209;DHT22;36320;48.860;2.380;2023-05-07T14:40:17;23.20;83.70
4209;DHT22;36320;48.860;2.380;2023-05-07T14:42:45;23.50;83.40
4209;DHT22;36320;48.860;2.380;2023-05-07T14:45:11;23.90;82.60
4209;DHT22;36320;48.860;2.380;2023-05-07T14:47:38;24.10;82.20
4209;DHT22;36320;48.860;2.380;2023-05-07T14:50:04;24.10;81.70
4209;DHT22;36320;48.860;2.380;2023-05-07T14:52:30;23.90;82.00
4209;DHT22;36320;48.860;2.380;2023-05-07T14:54:56;24.00;82.30
4209;DHT22;36320;48.860;2.380;2023-05-07T14:57:23;24.40;81.90
4209;DHT22;36320;48.860;2.380;2023-05-07T14:59:50;24.40;81.40
4209;DHT22;36320;48.860;2.380;2023-05-07T15:02:16;24.70;81.20
4209;DHT22;36320;48.860;2.380;2023-05-07T15:04:42;24.20;80.00
4209;DHT22;36320;48.860;2.380;2023-05-07T15:07:15;23.80;80.80
4209;DHT22;36320;48.860;2.380;2023-05-07T15:09:42;23.30;81.90
4209;DHT22;36320;48.860;2.380;2023-05-07T15:12:08;22.80;82.40
4209;DHT22;36320;48.860;2.380;2023-05-07T15:14:35;22.40;83.10
4209;DHT22;36320;48.860;2.380;2023-05-07T15:17:01;21.90;83.60
4209;DHT22;36320;48.860;2.380;2023-05-07T15:19:27;21.30;84.00
4209;DHT22;36320;48.860;2.380;2023-05-07T15:21:59;20.40;85.00
4209;DHT22;36320;48.860;2.380;2023-05-07T15:24:28;19.50;87.40
4209;DHT22;36320;48.860;2.380;2023-05-07T15:26:54;19.10;89.60
4209;DHT22;36320;48.860;2.380;2023-05-07T15:29:20;18.70;90.80
4209;DHT22;36320;48.860;2.380;2023-05-07T15:31:46;18.40;91.50
4209;DHT22;36320;48.860;2.380;2023-05-07T15:34:12;18.30;92.20
4209;DHT22;36320;48.860;2.380;2023-05-07T15:36:41;18.30;93.10
4209;DHT22;36320;48.860;2.380;2023-05-07T15:39:07;18.20;93.40
4209;DHT22;36320;48.860;2.380;2023-05-07T15:41:33;18.60;94.00
4209;DHT22;36320;48.860;2.380;2023-05-07T15:43:58;18.70;94.50
4209;DHT22;36320;48.860;2.380;2023-05-07T15:46:25;18.80;94.90
4209;DHT22;36320;48.860;2.380;2023-05-07T15:48:52;19.00;95.20
4209;DHT22;36320;48.860;2.380;2023-05-07T15:51:18;19.10;95.40
4209;DHT22;36320;48.860;2.380;2023-05-07T15:53:45;19.20;95.70
4209;DHT22;36320;48.860;2.380;2023-05-07T15:56:11;19.30;95.80
4209;DHT22;36320;48.860;2.380;2023-05-07T15:58:40;19.40;95.70
4209;DHT22;36320;48.860;2.380;2023-05-07T16:01:06;19.00;95.50
4209;DHT22;36320;48.860;2.380;2023-05-07T16:03:32;19.40;95.70
4209;DHT22;36320;48.860;2.380;2023-05-07T16:05:58;19.70;95.90